Terminal Aerodrome Forecast
Issued by NWS Sterling, VA

Home | Current Version | Previous Version | Text Only | Print | Product List | Glossary On
Versions: 1 2 3 4 5 6 7 8 9 10 11 12
000
FTUS41 KLWX 251140
TAFCHO
TAF
KCHO 251140Z 2512/2612 VRB03KT P6SM OVC090
     FM251500 00000KT P6SM -RA OVC090
     FM251800 17004KT P6SM RA OVC045
     FM252000 00000KT 3SM RA OVC015
     FM252100 00000KT 2SM RA OVC015
     FM260000 00000KT 2SM -RA OVC008
     FM260400 03004KT 3SM -RA OVC003=

USA.gov is the U.S. government's official web portal to all federal, state and local government web resources and services.